Time;durP1;ratioP1;P1;durP2;ratioP2;P2;SDS_P1;SDS_P2;PMS_P1;PMS_P2;Temp;Humidity;BMP_temperature;BMP_pressure;BME280_temperature;BME280_humidity;BME280_pressure;Samples;Min_cycle;Max_cycle;Signal;HPM_P1;HPM_P2
2023/10/03 00:01:16;;;;;;;27.77;14.80;;;;;;;16.41;94.76;98295.22;4141536;28;20724;-89
2023/10/03 00:03:41;;;;;;;28.70;14.77;;;;;;;16.39;95.47;98296.31;4140181;28;20697;-89
2023/10/03 00:06:05;;;;;;;27.87;15.13;;;;;;;16.38;96.02;98292.88;4127084;28;20663;-89
2023/10/03 00:08:27;;;;;;;31.60;15.27;;;;;;;16.35;94.93;98289.69;4143863;28;20642;-89
2023/10/03 00:10:33;;;;;;;30.13;14.90;;;;;;;16.32;96.00;98284.69;4156051;28;20650;-89
2023/10/03 00:12:56;;;;;;;30.90;14.10;;;;;;;16.32;96.59;98292.59;4137709;28;20720;-89
2023/10/03 00:15:01;;;;;;;30.10;14.17;;;;;;;16.28;94.76;98285.91;4124224;28;20645;-89
2023/10/03 00:17:24;;;;;;;30.20;14.50;;;;;;;16.26;96.38;98286.03;4130419;28;21374;-89
2023/10/03 00:19:30;;;;;;;27.70;14.70;;;;;;;16.27;95.77;98289.53;4125678;28;20697;-89
2023/10/03 00:21:45;;;;;;;29.50;15.30;;;;;;;16.21;96.21;98280.31;4135303;28;20673;-89
2023/10/03 00:23:49;;;;;;;30.70;15.87;;;;;;;16.22;95.28;98279.41;4141694;28;21045;-89
2023/10/03 00:26:17;;;;;;;30.40;14.70;;;;;;;16.24;97.58;98281.91;4125585;28;20641;-89
2023/10/03 00:28:41;;;;;;;29.97;14.77;;;;;;;16.21;95.75;98279.50;4140188;28;20633;-88
2023/10/03 00:30:48;;;;;;;27.90;14.30;;;;;;;16.20;96.14;98280.47;4141353;28;20673;-89
2023/10/03 00:33:12;;;;;;;25.03;14.70;;;;;;;16.16;97.36;98276.41;4127158;28;21028;-89
2023/10/03 00:35:22;;;;;;;27.87;16.07;;;;;;;16.14;95.87;98270.47;4127669;28;20704;-89
2023/10/03 00:37:46;;;;;;;32.10;14.10;;;;;;;16.11;95.15;98271.56;4143339;28;20650;-90
2023/10/03 00:39:51;;;;;;;33.70;14.80;;;;;;;16.10;96.72;98267.28;4129304;28;20628;-89
2023/10/03 00:42:05;;;;;;;31.10;16.00;;;;;;;16.10;97.23;98269.91;4130329;28;20658;-89
2023/10/03 00:44:19;;;;;;;30.73;15.50;;;;;;;16.09;97.62;98276.13;4125262;28;21455;-89
2023/10/03 00:46:30;;;;;;;29.73;15.00;;;;;;;16.09;95.58;98273.50;4127095;28;20775;-89
2023/10/03 00:48:54;;;;;;;32.13;14.37;;;;;;;16.06;97.12;98270.31;4142378;28;20638;-89
2023/10/03 00:51:06;;;;;;;30.90;15.83;;;;;;;16.05;95.44;98266.81;4129241;28;21186;-88
2023/10/03 00:53:09;;;;;;;28.83;14.70;;;;;;;16.03;97.26;98263.50;4140078;28;20635;-88
2023/10/03 00:55:14;;;;;;;28.57;15.60;;;;;;;16.02;97.03;98264.47;4138057;28;21122;-89
2023/10/03 00:57:18;;;;;;;30.30;16.03;;;;;;;16.03;97.83;98265.31;4142690;28;21201;-89
2023/10/03 00:59:22;;;;;;;29.80;15.60;;;;;;;16.02;95.69;98259.19;4141170;28;20670;-89
2023/10/03 01:01:33;;;;;;;32.90;16.77;;;;;;;16.01;97.67;98248.81;4132469;28;20627;-89
2023/10/03 01:03:37;;;;;;;31.10;16.13;;;;;;;15.99;97.99;98250.75;4142647;28;21230;-89
2023/10/03 01:05:43;;;;;;;27.70;15.30;;;;;;;15.99;98.05;98236.78;4143112;28;20638;-89
2023/10/03 01:07:49;;;;;;;27.13;14.77;;;;;;;15.96;97.53;98243.13;4141127;28;21240;-89
2023/10/03 01:09:53;;;;;;;31.47;15.60;;;;;;;15.95;98.37;98244.13;4138338;28;21019;-89
2023/10/03 01:11:56;;;;;;;32.60;16.50;;;;;;;15.97;96.04;98242.16;4138493;28;20630;-89
2023/10/03 01:14:00;;;;;;;26.37;14.30;;;;;;;15.94;96.42;98242.44;4148405;28;20623;-89
2023/10/03 01:16:05;;;;;;;29.00;15.50;;;;;;;15.92;97.77;98239.13;4125934;28;20623;-89
2023/10/03 01:18:13;;;;;;;31.20;14.77;;;;;;;15.91;97.18;98245.34;4128109;28;20646;-89
2023/10/03 01:20:28;;;;;;;29.73;15.37;;;;;;;15.92;96.89;98246.16;4127979;28;20680;-90
2023/10/03 01:22:32;;;;;;;32.03;14.93;;;;;;;15.90;97.20;98238.41;4119485;28;21035;-89
2023/10/03 01:24:38;;;;;;;29.23;15.40;;;;;;;15.90;96.33;98245.47;4123734;28;20654;-89
2023/10/03 01:26:42;;;;;;;29.67;15.47;;;;;;;15.86;98.26;98244.91;4143562;28;20815;-89
2023/10/03 01:28:45;;;;;;;31.50;15.57;;;;;;;15.87;96.46;98237.84;4138385;28;20640;-89
2023/10/03 01:30:51;;;;;;;30.17;16.17;;;;;;;15.83;95.77;98234.66;4139461;28;20658;-88
2023/10/03 01:32:56;;;;;;;28.67;15.13;;;;;;;15.82;96.66;98238.25;4143364;28;20618;-89
2023/10/03 01:35:08;;;;;;;35.23;17.10;;;;;;;15.79;97.61;98233.25;4155361;28;20626;-89
2023/10/03 01:37:12;;;;;;;39.03;15.70;;;;;;;15.78;96.97;98228.94;4142033;28;21201;-88
2023/10/03 01:39:17;;;;;;;28.10;14.97;;;;;;;15.75;97.91;98229.19;4119210;28;20612;-88
2023/10/03 01:41:22;;;;;;;29.33;14.70;;;;;;;15.76;95.90;98230.06;4124467;28;21249;-88
2023/10/03 01:43:33;;;;;;;33.93;16.27;;;;;;;15.72;97.62;98221.59;4141578;28;20681;-88
2023/10/03 01:45:37;;;;;;;27.37;15.47;;;;;;;15.71;97.19;98217.31;4126386;28;21223;-88
2023/10/03 01:47:45;;;;;;;29.13;16.33;;;;;;;15.71;98.14;98225.19;4143578;28;20657;-89
2023/10/03 01:49:50;;;;;;;31.90;15.33;;;;;;;15.71;97.48;98221.72;4139937;28;20656;-88
2023/10/03 01:51:54;;;;;;;35.00;16.70;;;;;;;15.72;97.53;98220.75;4123424;28;21449;-89
2023/10/03 01:53:59;;;;;;;27.43;15.33;;;;;;;15.70;97.51;98210.38;4142397;28;21498;-89
2023/10/03 01:56:05;;;;;;;27.93;14.67;;;;;;;15.70;96.24;98215.63;4128022;28;21158;-88
2023/10/03 01:58:11;;;;;;;30.73;15.93;;;;;;;15.69;97.13;98213.13;4124908;28;21023;-89
2023/10/03 02:00:21;;;;;;;30.57;15.27;;;;;;;15.66;96.52;98208.97;4125137;28;20662;-88
2023/10/03 02:02:24;;;;;;;28.83;15.67;;;;;;;15.65;96.59;98211.72;4141869;28;20757;-89
2023/10/03 02:04:28;;;;;;;33.37;14.70;;;;;;;15.61;96.94;98205.91;4125978;28;20663;-89
2023/10/03 02:06:32;;;;;;;30.80;15.80;;;;;;;15.63;96.50;98208.41;4122822;28;20626;-89
2023/10/03 02:08:36;;;;;;;31.20;15.47;;;;;;;15.60;96.66;98198.97;4124883;28;20687;-88
2023/10/03 02:10:41;;;;;;;30.77;17.20;;;;;;;15.59;97.65;98199.09;4141609;28;20650;-88
2023/10/03 02:12:48;;;;;;;29.83;16.47;;;;;;;15.55;97.69;98205.63;4125879;28;20639;-89
2023/10/03 02:14:55;;;;;;;33.27;16.10;;;;;;;15.53;96.92;98204.06;4122859;28;20717;-88
2023/10/03 02:16:59;;;;;;;31.33;16.57;;;;;;;15.50;96.78;98197.28;4122450;28;20653;-88
2023/10/03 02:19:06;;;;;;;28.80;15.23;;;;;;;15.47;96.58;98188.81;4140312;28;20636;-88
2023/10/03 02:21:10;;;;;;;34.00;16.50;;;;;;;15.45;95.87;98194.22;4138852;28;20657;-88
2023/10/03 02:23:17;;;;;;;28.13;15.23;;;;;;;15.43;97.92;98197.97;4138278;28;20645;-88
2023/10/03 02:25:23;;;;;;;28.00;15.50;;;;;;;15.42;97.74;98193.66;4125768;28;20757;-88
2023/10/03 02:27:27;;;;;;;32.13;16.53;;;;;;;15.40;96.75;98192.97;4131223;28;20696;-88
2023/10/03 02:29:31;;;;;;;28.97;15.30;;;;;;;15.40;96.40;98190.34;4122268;28;21457;-89
2023/10/03 02:31:37;;;;;;;31.27;15.30;;;;;;;15.37;96.88;98180.91;4122662;28;20634;-89
2023/10/03 02:33:44;;;;;;;30.17;15.70;;;;;;;15.39;97.95;98188.66;4120803;28;20689;-88
2023/10/03 02:35:50;;;;;;;31.13;14.97;;;;;;;15.38;97.09;98179.94;4121678;28;20693;-88
2023/10/03 02:37:56;;;;;;;30.97;15.10;;;;;;;15.37;97.43;98175.66;4138592;28;20649;-89
2023/10/03 02:40:01;;;;;;;35.20;16.03;;;;;;;15.34;97.56;98181.16;4142283;28;20637;-88
2023/10/03 02:42:06;;;;;;;34.07;16.80;;;;;;;15.34;97.22;98173.28;4126252;28;21090;-88
2023/10/03 02:44:10;;;;;;;35.80;16.70;;;;;;;15.33;96.77;98166.34;4127208;28;20653;-88
2023/10/03 02:46:15;;;;;;;31.27;15.10;;;;;;;15.32;98.18;98161.22;4140435;28;20638;-88
2023/10/03 02:48:26;;;;;;;30.23;16.13;;;;;;;15.31;96.60;98163.03;4125795;28;20649;-89
2023/10/03 02:50:33;;;;;;;29.13;15.50;;;;;;;15.29;97.24;98162.34;4115688;28;20639;-88
2023/10/03 02:52:39;;;;;;;29.67;15.80;;;;;;;15.28;97.73;98160.66;4122130;28;20637;-88
2023/10/03 02:54:43;;;;;;;31.23;15.00;;;;;;;15.28;97.59;98162.47;4120184;28;20638;-89
2023/10/03 02:56:47;;;;;;;29.80;15.60;;;;;;;15.29;97.02;98161.50;4114643;28;20686;-89
2023/10/03 02:58:51;;;;;;;29.97;14.80;;;;;;;15.28;98.17;98151.97;4135281;28;20628;-88
2023/10/03 03:00:55;;;;;;;30.47;15.10;;;;;;;15.25;97.70;98160.09;4132509;28;20696;-88
2023/10/03 03:03:01;;;;;;;30.57;16.00;;;;;;;15.22;97.87;98157.75;4138180;28;20676;-88
2023/10/03 03:05:10;;;;;;;30.70;15.33;;;;;;;15.20;97.51;98157.88;4125946;28;20781;-88
2023/10/03 03:07:13;;;;;;;27.50;15.10;;;;;;;15.19;97.65;98148.31;4126474;28;20701;-88
2023/10/03 03:09:23;;;;;;;29.87;16.20;;;;;;;15.17;97.86;98142.38;4124350;28;21307;-88
2023/10/03 03:11:31;;;;;;;29.90;15.80;;;;;;;15.16;97.77;98148.53;4122621;28;21057;-89
2023/10/03 03:13:36;;;;;;;32.93;15.80;;;;;;;15.17;96.54;98155.50;4117416;28;20725;-88
2023/10/03 03:15:43;;;;;;;29.77;14.83;;;;;;;15.16;97.88;98152.97;4139328;28;20642;-88
2023/10/03 03:17:48;;;;;;;31.47;16.17;;;;;;;15.16;97.87;98151.16;4140428;28;20648;-88
2023/10/03 03:19:54;;;;;;;29.43;15.10;;;;;;;15.15;97.73;98148.66;4140781;28;20641;-89
2023/10/03 03:22:04;;;;;;;25.77;14.60;;;;;;;15.10;97.50;98150.88;4125270;28;21054;-88
2023/10/03 03:24:09;;;;;;;31.07;15.30;;;;;;;15.10;96.78;98158.75;4126233;28;20684;-88
2023/10/03 03:26:20;;;;;;;26.23;14.20;;;;;;;15.09;98.03;98157.06;4140189;28;20716;-88
2023/10/03 03:28:24;;;;;;;29.20;14.50;;;;;;;15.07;96.89;98161.63;4140427;28;21524;-89
2023/10/03 03:30:36;;;;;;;36.77;15.93;;;;;;;15.05;97.15;98158.31;4121300;28;20674;-89
2023/10/03 03:32:40;;;;;;;29.27;14.67;;;;;;;15.05;97.36;98165.34;4137872;28;20653;-89
2023/10/03 03:34:45;;;;;;;29.63;15.50;;;;;;;15.02;97.90;98165.59;4149630;28;20652;-88
2023/10/03 03:36:54;;;;;;;32.83;15.00;;;;;;;14.98;97.58;98167.66;4122250;28;20662;-88
2023/10/03 03:39:03;;;;;;;27.10;14.20;;;;;;;14.95;96.31;98159.22;4136231;28;20739;-88
2023/10/03 03:41:08;;;;;;;29.93;13.93;;;;;;;14.94;96.74;98152.31;4119426;28;21011;-88
2023/10/03 03:43:12;;;;;;;25.93;14.07;;;;;;;14.93;97.82;98154.09;4140947;28;20667;-88
2023/10/03 03:45:17;;;;;;;30.60;14.60;;;;;;;14.92;96.63;98157.69;4135818;28;20697;-89
2023/10/03 03:47:21;;;;;;;28.20;13.77;;;;;;;14.91;96.84;98161.25;4137313;28;20648;-89
2023/10/03 03:49:25;;;;;;;27.23;14.10;;;;;;;14.90;97.04;98154.38;4136858;28;20658;-89
2023/10/03 03:51:28;;;;;;;30.97;14.97;;;;;;;14.92;97.04;98154.22;4121699;28;20642;-89
2023/10/03 03:53:32;;;;;;;26.00;14.37;;;;;;;14.89;97.16;98160.56;4141777;28;20699;-89
2023/10/03 03:55:38;;;;;;;27.63;14.80;;;;;;;14.87;98.08;98162.50;4122437;28;20638;-88
2023/10/03 03:57:41;;;;;;;33.67;15.90;;;;;;;14.90;97.87;98164.00;4138261;28;20672;-89
2023/10/03 03:59:47;;;;;;;29.17;14.47;;;;;;;14.89;97.80;98154.50;4140195;28;20631;-89
2023/10/03 04:01:51;;;;;;;32.53;15.07;;;;;;;14.89;96.99;98157.94;4124152;28;21062;-88
2023/10/03 04:03:58;;;;;;;27.40;14.33;;;;;;;14.89;98.43;98162.38;4127304;28;20645;-89
2023/10/03 04:06:02;;;;;;;30.90;14.50;;;;;;;14.89;98.07;98157.94;4142962;28;20676;-89
2023/10/03 04:08:07;;;;;;;27.17;14.80;;;;;;;14.88;97.95;98156.25;4124276;28;20681;-89
2023/10/03 04:10:12;;;;;;;30.17;14.90;;;;;;;14.85;97.00;98160.94;4128281;28;20634;-89
2023/10/03 04:12:18;;;;;;;27.93;14.50;;;;;;;14.83;98.43;98150.56;4142505;28;20690;-89
2023/10/03 04:14:22;;;;;;;27.40;14.33;;;;;;;14.80;97.54;98142.97;4120955;28;20753;-89
2023/10/03 04:16:28;;;;;;;32.50;16.00;;;;;;;14.79;98.10;98143.94;4140665;28;20634;-89
2023/10/03 04:18:32;;;;;;;29.97;15.23;;;;;;;14.81;97.52;98147.25;4124880;28;20692;-89
2023/10/03 04:20:46;;;;;;;31.27;14.47;;;;;;;14.84;97.99;98148.78;4141680;28;20633;-89
2023/10/03 04:22:50;;;;;;;28.50;14.43;;;;;;;14.81;98.88;98144.63;4138964;28;21588;-88
2023/10/03 04:24:55;;;;;;;30.23;15.07;;;;;;;14.81;97.94;98138.56;4140414;28;20622;-88
2023/10/03 04:26:58;;;;;;;26.97;14.20;;;;;;;14.81;97.71;98141.19;4138811;28;20628;-89
2023/10/03 04:29:03;;;;;;;28.80;14.90;;;;;;;14.83;98.83;98144.50;4139030;28;20640;-89
2023/10/03 04:31:09;;;;;;;32.20;15.23;;;;;;;14.82;98.54;98148.91;4133818;28;20731;-89
2023/10/03 04:33:17;;;;;;;31.23;15.57;;;;;;;14.80;99.35;98145.59;4131038;28;20661;-89
2023/10/03 04:35:21;;;;;;;30.77;15.27;;;;;;;14.79;98.62;98143.94;4133584;28;20645;-89
2023/10/03 04:37:27;;;;;;;28.90;14.50;;;;;;;14.78;98.91;98157.19;4140192;28;20632;-89
2023/10/03 04:39:33;;;;;;;30.20;14.13;;;;;;;14.77;99.38;98150.28;4143493;28;20620;-89
2023/10/03 04:41:42;;;;;;;29.27;14.70;;;;;;;14.77;98.15;98145.84;4121928;28;20622;-89
2023/10/03 04:43:45;;;;;;;27.40;13.97;;;;;;;14.71;98.35;98146.34;4131017;28;21010;-89
2023/10/03 04:45:51;;;;;;;28.43;14.80;;;;;;;14.71;98.23;98148.97;4128986;28;20658;-89
2023/10/03 04:47:54;;;;;;;29.57;15.10;;;;;;;14.70;99.16;98147.34;4142078;28;20683;-89
2023/10/03 04:49:59;;;;;;;24.97;13.90;;;;;;;14.68;98.68;98143.97;4143271;28;20686;-89
2023/10/03 04:52:03;;;;;;;32.97;15.30;;;;;;;14.68;98.62;98154.47;4125255;28;20670;-89
2023/10/03 04:54:07;;;;;;;29.37;14.83;;;;;;;14.68;98.50;98149.25;4139583;28;20676;-89
2023/10/03 04:56:11;;;;;;;33.83;15.77;;;;;;;14.67;99.20;98142.34;4142346;28;20629;-89
2023/10/03 04:58:15;;;;;;;27.37;14.10;;;;;;;14.65;98.85;98139.00;4141899;28;20656;-89
2023/10/03 05:00:21;;;;;;;31.10;15.10;;;;;;;14.66;98.25;98140.66;4142095;28;20987;-88
2023/10/03 05:02:25;;;;;;;32.37;15.30;;;;;;;14.64;98.52;98145.22;4126930;28;21229;-88
2023/10/03 05:04:28;;;;;;;30.23;14.80;;;;;;;14.60;98.01;98128.06;4141267;28;21460;-88
2023/10/03 05:06:33;;;;;;;27.13;14.30;;;;;;;14.62;98.67;98141.03;4139730;28;22044;-88
2023/10/03 05:08:37;;;;;;;23.93;13.87;;;;;;;14.62;98.22;98144.50;4126616;28;20999;-88
2023/10/03 05:10:40;;;;;;;31.03;15.30;;;;;;;14.62;98.76;98143.66;4142037;28;21063;-88
2023/10/03 05:12:45;;;;;;;28.20;15.23;;;;;;;14.61;97.95;98139.38;4117501;28;20691;-88
2023/10/03 05:14:48;;;;;;;29.23;14.03;;;;;;;14.61;99.24;98142.00;4140257;28;20633;-89
2023/10/03 05:16:54;;;;;;;28.83;14.97;;;;;;;14.61;99.11;98155.97;4137375;28;20690;-88
2023/10/03 05:18:59;;;;;;;26.90;14.10;;;;;;;14.58;99.22;98151.94;4139295;28;20668;-88
2023/10/03 05:21:05;;;;;;;28.93;15.70;;;;;;;14.59;99.23;98148.34;4139660;28;20666;-88
2023/10/03 05:23:08;;;;;;;27.87;15.13;;;;;;;14.57;99.11;98143.22;4142082;28;21191;-88
2023/10/03 05:25:13;;;;;;;30.37;15.50;;;;;;;14.57;98.18;98137.13;4140486;28;21259;-88
2023/10/03 05:27:17;;;;;;;31.47;15.30;;;;;;;14.52;98.80;98137.50;4123070;28;20659;-88
2023/10/03 05:29:21;;;;;;;29.80;14.47;;;;;;;14.47;99.15;98144.13;4140191;28;20664;-88
2023/10/03 05:31:24;;;;;;;30.93;16.20;;;;;;;14.46;99.36;98145.91;4135755;28;20656;-88
2023/10/03 05:33:27;;;;;;;32.83;16.17;;;;;;;14.50;99.60;98141.25;4141197;28;20679;-88
2023/10/03 05:35:32;;;;;;;28.40;14.90;;;;;;;14.47;99.89;98144.94;4125795;28;20638;-88
2023/10/03 05:37:36;;;;;;;28.63;14.27;;;;;;;14.48;99.75;98145.75;4140559;28;21225;-89
2023/10/03 05:39:39;;;;;;;35.77;15.43;;;;;;;14.50;100.00;98149.13;4140869;28;20630;-89
2023/10/03 05:41:43;;;;;;;26.63;15.87;;;;;;;14.50;99.56;98149.94;4140578;28;20637;-89
2023/10/03 05:43:46;;;;;;;30.87;15.00;;;;;;;14.44;100.00;98147.81;4142971;28;20637;-89
2023/10/03 05:45:51;;;;;;;28.93;14.60;;;;;;;14.42;99.63;98147.13;4126224;28;21137;-89
2023/10/03 05:47:59;;;;;;;27.50;13.93;;;;;;;14.45;100.00;98146.88;4139472;28;21012;-89
2023/10/03 05:50:04;;;;;;;29.20;14.13;;;;;;;14.52;100.00;98152.44;4126003;28;21201;-89
2023/10/03 05:52:10;;;;;;;25.97;13.20;;;;;;;14.62;100.00;98151.56;4122950;28;20635;-88
2023/10/03 05:54:12;;;;;;;28.97;14.57;;;;;;;14.67;100.00;98158.09;4120316;28;20678;-88
2023/10/03 05:56:16;;;;;;;28.07;14.70;;;;;;;14.67;100.00;98168.59;4140979;28;20634;-88
2023/10/03 05:58:19;;;;;;;30.93;13.83;;;;;;;14.68;100.00;98170.25;4121579;28;20638;-89
2023/10/03 06:00:23;;;;;;;29.90;13.90;;;;;;;14.69;99.92;98169.28;4149993;28;20637;-89
2023/10/03 06:02:26;;;;;;;27.40;15.17;;;;;;;14.77;99.58;98169.47;4137433;28;20622;-89
2023/10/03 06:04:33;;;;;;;28.10;13.93;;;;;;;14.71;99.96;98164.72;4132373;28;20672;-89
2023/10/03 06:06:37;;;;;;;31.37;15.00;;;;;;;14.69;99.51;98177.16;4118155;28;20669;-89
2023/10/03 06:08:42;;;;;;;30.00;14.43;;;;;;;14.64;100.00;98174.09;4129586;28;20635;-90
2023/10/03 06:10:46;;;;;;;30.27;14.67;;;;;;;14.72;100.00;98181.34;4123758;28;20638;-90
2023/10/03 06:12:52;;;;;;;26.77;14.27;;;;;;;14.74;99.98;98174.97;4128369;28;21019;-90
2023/10/03 06:14:56;;;;;;;28.83;14.93;;;;;;;14.89;100.00;98178.94;4137256;28;20637;-90
2023/10/03 06:17:00;;;;;;;25.60;14.37;;;;;;;15.07;100.00;98181.84;4119202;28;20645;-93
2023/10/03 06:19:07;;;;;;;33.47;15.90;;;;;;;15.12;100.00;98178.69;4141248;28;20671;-95
2023/10/03 06:29:25;;;;;;;27.00;14.07;;;;;;;16.16;96.12;98202.72;4141165;28;20671;-96
2023/10/03 06:31:31;;;;;;;27.27;14.70;;;;;;;16.33;96.25;98200.31;4133793;28;20629;-91
2023/10/03 06:33:33;;;;;;;27.80;14.47;;;;;;;16.34;96.38;98206.38;4136106;28;20815;-93
2023/10/03 06:35:37;;;;;;;27.30;13.80;;;;;;;16.24;96.97;98200.31;4108360;28;20652;-93
2023/10/03 06:37:41;;;;;;;28.80;13.63;;;;;;;16.30;97.37;98205.84;4105125;28;21289;-91
2023/10/03 06:39:45;;;;;;;31.43;14.00;;;;;;;16.52;98.14;98208.19;4104788;28;20635;-91
2023/10/03 06:41:49;;;;;;;27.20;15.03;;;;;;;16.77;98.55;98213.75;4122863;28;20626;-92
2023/10/03 06:43:54;;;;;;;29.00;14.40;;;;;;;17.00;95.96;98215.97;4104031;28;20699;-91
2023/10/03 06:45:59;;;;;;;26.43;14.13;;;;;;;17.21;95.31;98221.06;4121205;28;20749;-92
2023/10/03 06:48:04;;;;;;;26.37;14.03;;;;;;;17.28;93.87;98222.16;4121682;28;20634;-91
2023/10/03 06:50:08;;;;;;;27.00;14.07;;;;;;;17.31;94.87;98221.88;4125380;28;20751;-92
2023/10/03 06:52:13;;;;;;;28.90;14.50;;;;;;;17.33;93.76;98219.94;4107205;28;20633;-92
2023/10/03 06:54:20;;;;;;;23.40;13.03;;;;;;;17.38;94.34;98222.97;4123539;28;20631;-91
2023/10/03 06:56:23;;;;;;;26.43;15.40;;;;;;;17.46;93.16;98223.09;4116904;28;20745;-89
2023/10/03 06:58:27;;;;;;;26.60;14.73;;;;;;;17.67;93.16;98221.91;4099682;28;21195;-89
2023/10/03 07:00:32;;;;;;;23.70;13.47;;;;;;;17.88;92.27;98222.50;4126969;28;20634;-87
2023/10/03 07:02:38;;;;;;;25.93;13.90;;;;;;;18.06;94.10;98224.22;4115903;28;21035;-89
2023/10/03 07:04:41;;;;;;;26.80;14.00;;;;;;;18.27;93.06;98228.28;4126574;28;20717;-88
2023/10/03 07:06:45;;;;;;;33.60;13.70;;;;;;;18.45;92.42;98222.03;4114113;28;20656;-83
2023/10/03 07:08:50;;;;;;;26.33;13.97;;;;;;;18.62;91.23;98229.13;4117222;28;20697;-88
2023/10/03 07:10:57;;;;;;;29.67;15.27;;;;;;;18.81;91.52;98231.63;4104468;28;20717;-89
2023/10/03 07:13:01;;;;;;;25.60;13.83;;;;;;;19.02;89.61;98219.78;4106512;28;20656;-89
2023/10/03 07:15:09;;;;;;;24.03;14.80;;;;;;;19.19;89.97;98226.84;4115700;28;21221;-85
2023/10/03 07:17:14;;;;;;;23.30;13.57;;;;;;;19.36;90.43;98233.91;4118076;28;20699;-86
2023/10/03 07:19:21;;;;;;;27.07;14.40;;;;;;;19.55;91.99;98233.72;4120931;28;20644;-83
2023/10/03 07:21:25;;;;;;;26.83;14.70;;;;;;;19.72;90.56;98225.69;4116180;28;21486;-86
2023/10/03 07:23:28;;;;;;;27.33;17.73;;;;;;;19.89;89.92;98241.53;4122075;28;20691;-85
2023/10/03 07:25:33;;;;;;;25.13;14.83;;;;;;;20.08;90.29;98233.34;4118589;28;21079;-87
2023/10/03 07:27:41;;;;;;;25.37;13.60;;;;;;;20.27;90.45;98225.13;4095497;28;20741;-93
2023/10/03 07:29:44;;;;;;;25.57;14.57;;;;;;;20.49;90.66;98232.47;4103460;28;21072;-92
2023/10/03 07:31:49;;;;;;;28.50;14.43;;;;;;;20.71;90.16;98237.19;4103087;28;20662;-91
2023/10/03 07:33:54;;;;;;;24.60;13.40;;;;;;;20.93;89.76;98246.16;4109440;28;20738;-89
2023/10/03 07:36:05;;;;;;;21.80;13.00;;;;;;;21.12;88.64;98239.72;4110332;28;21120;-95
2023/10/03 07:38:11;;;;;;;27.10;15.13;;;;;;;21.30;88.66;98238.53;4121356;28;20612;-95
2023/10/03 07:40:18;;;;;;;24.70;13.73;;;;;;;21.43;87.57;98236.22;4135003;28;20669;-91
2023/10/03 07:42:23;;;;;;;21.03;12.90;;;;;;;21.62;89.21;98246.47;4128381;28;21289;-90
2023/10/03 07:44:27;;;;;;;23.43;12.73;;;;;;;21.82;88.66;98237.97;4119461;28;20631;-86
2023/10/03 07:46:30;;;;;;;22.07;13.20;;;;;;;22.08;89.22;98243.88;4123106;28;20630;-89
2023/10/03 07:48:35;;;;;;;24.50;12.83;;;;;;;22.34;88.29;98250.56;4125918;28;20671;-87
2023/10/03 07:50:40;;;;;;;23.90;12.80;;;;;;;22.58;89.49;98243.34;4123264;28;21038;-86
2023/10/03 07:52:48;;;;;;;19.30;12.33;;;;;;;22.83;89.46;98244.81;4124157;28;20728;-92
2023/10/03 07:54:57;;;;;;;21.27;12.57;;;;;;;23.04;87.44;98242.38;4124299;28;20693;-92
2023/10/03 07:57:04;;;;;;;23.47;13.10;;;;;;;23.26;87.82;98247.69;4109119;28;20651;-89
2023/10/03 07:59:09;;;;;;;20.20;11.90;;;;;;;23.45;87.81;98244.50;4118138;28;20686;-91
2023/10/03 08:01:13;;;;;;;18.27;10.03;;;;;;;23.66;84.68;98247.34;4122686;28;20668;-91
2023/10/03 08:03:17;;;;;;;17.50;9.63;;;;;;;23.86;83.33;98244.78;4121582;28;20644;-88
2023/10/03 08:05:27;;;;;;;13.80;8.97;;;;;;;24.06;80.48;98245.06;4108968;28;20646;-96
2023/10/03 08:07:31;;;;;;;13.40;8.80;;;;;;;24.33;81.89;98239.91;4124068;28;21128;-89
2023/10/03 08:09:38;;;;;;;13.57;8.90;;;;;;;24.61;79.43;98240.88;4124302;28;20684;-90
2023/10/03 08:11:46;;;;;;;11.10;7.60;;;;;;;24.78;77.90;98245.78;4122316;28;20642;-90
2023/10/03 08:13:50;;;;;;;10.07;7.00;;;;;;;25.02;77.08;98248.09;4141130;28;20629;-91
2023/10/03 08:15:54;;;;;;;12.50;7.67;;;;;;;25.16;74.38;98248.88;4103421;28;21289;-91
2023/10/03 08:17:59;;;;;;;9.20;6.70;;;;;;;25.30;72.98;98245.34;4118862;28;20676;-92
2023/10/03 08:20:04;;;;;;;10.20;6.87;;;;;;;25.46;71.96;98244.22;4123788;28;20748;-93
2023/10/03 08:22:12;;;;;;;9.50;6.73;;;;;;;25.57;71.98;98236.47;4105412;28;21024;-92
2023/10/03 08:24:19;;;;;;;10.67;7.17;;;;;;;25.67;70.35;98235.16;4103415;28;20750;-92
2023/10/03 08:26:25;;;;;;;10.90;6.70;;;;;;;25.89;70.78;98234.09;4116514;28;20635;-92
2023/10/03 08:28:30;;;;;;;8.30;6.37;;;;;;;26.02;68.32;98230.66;4135044;28;20679;-93
2023/10/03 08:30:35;;;;;;;10.60;6.57;;;;;;;26.06;68.76;98226.56;4104405;28;21104;-90
2023/10/03 08:32:39;;;;;;;11.43;7.53;;;;;;;26.06;67.68;98227.41;4107052;28;20671;-89
2023/10/03 08:34:44;;;;;;;11.43;7.30;;;;;;;26.17;66.98;98224.97;4102569;28;20639;-90
2023/10/03 08:36:51;;;;;;;6.77;5.43;;;;;;;26.37;68.17;98222.41;4112466;28;20743;-89
2023/10/03 08:39:04;;;;;;;11.00;6.60;;;;;;;26.63;66.84;98221.50;4110749;28;20642;-89
2023/10/03 08:41:11;;;;;;;6.90;5.40;;;;;;;26.78;64.62;98221.34;4133318;28;21551;-87
2023/10/03 08:43:17;;;;;;;10.47;6.43;;;;;;;26.86;63.66;98215.78;4121459;28;20645;-88
2023/10/03 08:45:22;;;;;;;10.50;6.10;;;;;;;27.04;64.26;98209.66;4101734;28;20624;-87
2023/10/03 08:47:33;;;;;;;7.73;5.80;;;;;;;27.13;65.82;98212.97;4099148;28;20633;-89
2023/10/03 08:49:40;;;;;;;10.30;6.27;;;;;;;27.25;65.78;98216.69;4116682;28;20634;-86
2023/10/03 08:51:43;;;;;;;9.80;6.27;;;;;;;27.30;66.89;98209.66;4114352;28;21277;-89
2023/10/03 08:53:49;;;;;;;12.20;6.37;;;;;;;27.22;65.30;98211.75;4102799;28;20644;-87
2023/10/03 08:55:57;;;;;;;8.60;6.37;;;;;;;27.00;65.04;98206.78;4113116;28;20641;-86
2023/10/03 08:58:00;;;;;;;8.93;6.27;;;;;;;26.93;65.16;98204.09;4117853;28;20672;-87
2023/10/03 09:00:09;;;;;;;10.77;8.87;;;;;;;27.08;66.46;98204.72;4115885;28;20666;-87
2023/10/03 09:02:15;;;;;;;8.63;6.83;;;;;;;27.08;63.94;98208.22;4099512;28;21318;-87
2023/10/03 09:04:19;;;;;;;7.33;5.60;;;;;;;27.15;64.01;98209.06;4113828;28;20636;-87
2023/10/03 09:06:24;;;;;;;13.77;9.10;;;;;;;27.23;65.22;98210.72;4112504;28;20974;-87
2023/10/03 09:08:28;;;;;;;12.70;7.00;;;;;;;27.07;64.77;98198.53;4097264;28;20665;-87
2023/10/03 09:10:34;;;;;;;8.90;6.30;;;;;;;26.91;63.34;98194.59;4114080;28;20639;-90
2023/10/03 09:12:42;;;;;;;9.40;6.30;;;;;;;26.85;63.47;98187.34;4109363;28;20636;-88
2023/10/03 09:14:53;;;;;;;8.00;6.20;;;;;;;26.77;64.41;98193.72;4115453;28;20624;-86
2023/10/03 09:16:59;;;;;;;8.93;7.00;;;;;;;26.78;62.92;98198.06;4116882;28;20631;-86
2023/10/03 09:19:04;;;;;;;10.40;9.23;;;;;;;26.77;64.60;98196.41;4115499;28;20727;-86
2023/10/03 09:21:14;;;;;;;12.30;9.93;;;;;;;26.84;64.90;98193.75;4116288;28;20646;-87
2023/10/03 09:23:19;;;;;;;11.73;7.10;;;;;;;27.05;64.32;98197.09;4112081;28;20665;-86
2023/10/03 09:25:22;;;;;;;9.77;6.10;;;;;;;27.26;64.11;98204.97;4113766;28;20735;-87
2023/10/03 09:27:30;;;;;;;9.77;6.77;;;;;;;27.24;64.16;98189.09;4113686;28;20636;-87
2023/10/03 09:29:34;;;;;;;8.40;6.07;;;;;;;27.31;63.76;98181.03;4105222;28;20678;-87
2023/10/03 09:31:37;;;;;;;8.87;6.10;;;;;;;27.25;63.34;98180.00;4116106;28;20725;-87
2023/10/03 09:33:42;;;;;;;8.53;6.30;;;;;;;27.23;63.84;98187.44;4115789;28;20639;-87
2023/10/03 09:35:57;;;;;;;10.27;6.30;;;;;;;27.19;62.63;98178.13;4106441;28;20635;-86
2023/10/03 09:38:05;;;;;;;8.00;5.87;;;;;;;27.36;62.75;98175.88;4126762;28;20666;-86
2023/10/03 09:40:17;;;;;;;8.90;6.57;;;;;;;27.47;63.18;98168.03;4118458;28;21065;-86
2023/10/03 09:42:23;;;;;;;8.67;6.53;;;;;;;27.41;63.31;98168.88;4115838;28;20631;-86
2023/10/03 09:44:30;;;;;;;9.10;6.30;;;;;;;27.37;62.84;98170.31;4138675;28;20698;-87
2023/10/03 09:46:39;;;;;;;7.93;6.10;;;;;;;27.46;62.97;98166.38;4118458;28;20682;-87
2023/10/03 09:48:43;;;;;;;8.60;6.93;;;;;;;27.48;62.47;98163.50;4119273;28;20660;-86
2023/10/03 09:50:53;;;;;;;10.43;7.40;;;;;;;27.55;62.29;98167.84;4121724;28;20639;-86